Terminal Aerodrome Forecast
Issued by NWS

Home | Current Version | Previous Version | Text Only | Print | Product List | Glossary On
Versions: 1 2 3 4 5 6 7 8 9 10 11 12 13 14 15
450
FTUS44 KBMX 310039 AAA
TAFANB
TAF AMD
KANB 310039Z 3101/3124 28005KT P6SM VCTS SCT050CB SCT090
     FM310200 00000KT P6SM SCT250
      TEMPO 3110/3112 5SM BR
     FM311600 31005KT P6SM SCT050=

USA.gov is the U.S. government's official web portal to all federal, state and local government web resources and services.